»·PEaware :: N480H 24S-KFOT

N480H :: 24S-KFOT

FLIGHT INFORMATION

Flight Status: Arrived
Operator: Privately registered:
United States
More flights under this callsign
Pilot: John N. (54)
Aircraft: CESSNA T210 TURBO CENTURION
(T210)
More flights by this aircraft type
Origin: 24S Pinehurst State
United States
Destination: KFOT Rohnerville
United States
More flights between these airports :: More routes between these airports
Route: DCT
File this flight plan on PilotEdge
Remarks:
Altitude:
(Current/Filed)
10,000ft
Speed:
(Current/Filed)
170kts
Departed: 30-May-17 09:04 AM
Arrived: 30-May-17 10:13 AM
Distance/Time
Traveled:
122nm/1:09
Distance/Time
To Go:
Arrived

Flight Plot

Page will automatically refresh every two minutes.

Flight plan parsing failed; only flown route is shown


Map Options




Map Legend


Flown Route
Filed Route
Departure Airport
Arrival Airport
Navaid (VOR, NDB)
Fix

Horizontal Profiles

Position Reports

Time Latitude Longitude Heading Altitude Ground
Speed
30-May-17 08:53 42.107238 -122.385131 237 3628ft 0kts
30-May-17 08:54 42.107238 -122.385131 237 3628ft 0kts
30-May-17 08:55 42.107238 -122.385131 237 3628ft 0kts
30-May-17 08:56 42.107238 -122.385131 237 3628ft 0kts
30-May-17 08:57 42.107238 -122.385131 237 3628ft 0kts
30-May-17 08:58 42.107238 -122.385131 237 3628ft 0kts
30-May-17 08:59 42.107238 -122.385131 237 3628ft 0kts
30-May-17 09:00 42.107227 -122.385153 237 3628ft 0kts
30-May-17 09:01 42.107227 -122.385153 237 3628ft 0kts
30-May-17 09:02 42.107227 -122.385153 237 3628ft 0kts
30-May-17 09:03 42.107227 -122.385153 237 3628ft 0kts
30-May-17 09:04 42.107326 -122.385212 38 3628ft 0kts
30-May-17 09:05 42.110729 -122.381561 43 3609ft 18kts
30-May-17 09:06 42.110339 -122.381903 215 3610ft 43kts
30-May-17 09:07 42.090200 -122.402966 212 4463ft 104kts
30-May-17 09:08 42.062515 -122.407650 153 5400ft 122kts
30-May-17 09:09 42.029292 -122.413254 196 6274ft 128kts
30-May-17 09:10 41.998959 -122.440408 213 7084ft 133kts
30-May-17 09:11 41.977553 -122.481920 239 7871ft 140kts
30-May-17 09:12 41.964621 -122.527851 237 8678ft 127kts
30-May-17 09:13 41.946231 -122.565348 216 9420ft 115kts
30-May-17 09:14 41.930085 -122.587670 211 9953ft 111kts
30-May-17 09:15 41.918905 -122.601471 212 9994ft 123kts
30-May-17 09:16 41.894349 -122.630898 211 10003ft 128kts
30-May-17 09:17 41.867297 -122.659935 200 10002ft 125kts
30-May-17 09:18 41.837033 -122.683042 200 10001ft 125kts
30-May-17 09:19 41.806763 -122.705926 200 10001ft 125kts
30-May-17 09:20 41.776429 -122.728791 200 10000ft 125kts
30-May-17 09:21 41.746276 -122.751474 200 10000ft 125kts
30-May-17 09:22 41.715899 -122.774300 200 10000ft 125kts
30-May-17 09:23 41.685592 -122.797049 200 10000ft 125kts
30-May-17 09:24 41.655469 -122.819645 200 10000ft 124kts
30-May-17 09:25 41.625490 -122.842094 200 10000ft 124kts
30-May-17 09:26 41.595398 -122.864605 200 10000ft 124kts
30-May-17 09:27 41.565440 -122.886991 200 10000ft 124kts
30-May-17 09:28 41.535445 -122.909371 200 9999ft 124kts
30-May-17 09:29 41.505404 -122.931772 200 9999ft 124kts
30-May-17 09:30 41.475331 -122.954175 200 9999ft 124kts
30-May-17 09:31 41.445115 -122.976661 201 9999ft 124kts
30-May-17 09:32 41.414873 -122.999143 201 9999ft 125kts
30-May-17 09:33 41.384493 -123.021703 201 9999ft 125kts
30-May-17 09:34 41.354136 -123.044222 201 9999ft 125kts
30-May-17 09:35 41.323804 -123.066698 201 9999ft 125kts
30-May-17 09:36 41.293357 -123.089235 202 9999ft 125kts
30-May-17 09:37 41.262861 -123.111784 202 9998ft 126kts
30-May-17 09:38 41.232239 -123.134413 202 10003ft 125kts
30-May-17 09:39 41.201974 -123.156750 202 10012ft 125kts
30-May-17 09:40 41.171507 -123.179005 207 10025ft 123kts
30-May-17 09:41 41.142238 -123.200417 211 10030ft 119kts
30-May-17 09:42 41.113310 -123.221925 211 10030ft 120kts
30-May-17 09:43 41.084180 -123.243416 210 10005ft 120kts
30-May-17 09:44 41.054524 -123.265193 210 9868ft 126kts
30-May-17 09:45 41.023358 -123.288036 210 9495ft 131kts
30-May-17 09:46 40.991171 -123.311607 211 9086ft 134kts
30-May-17 09:47 40.958235 -123.335699 211 8602ft 137kts
30-May-17 09:48 40.923596 -123.357284 210 8127ft 138kts
30-May-17 09:49 40.891761 -123.379825 212 7689ft 139kts
30-May-17 09:50 40.858991 -123.403861 213 7562ft 131kts
30-May-17 09:51 40.827976 -123.426801 213 7562ft 127kts
30-May-17 09:52 40.797194 -123.449595 213 7562ft 127kts
30-May-17 09:53 40.766411 -123.472374 213 7563ft 127kts
30-May-17 09:54 40.735506 -123.495208 212 7542ft 129kts
30-May-17 09:55 40.709385 -123.514490 212 7498ft 128kts
30-May-17 09:56 40.678546 -123.537323 212 7498ft 127kts
30-May-17 09:57 40.642611 -123.563811 212 7498ft 127kts
30-May-17 09:58 40.610647 -123.587318 212 7206ft 137kts
30-May-17 09:59 40.582873 -123.607698 212 6880ft 138kts
30-May-17 10:00 40.544019 -123.636175 212 6432ft 138kts
30-May-17 10:01 40.532202 -123.644827 212 6297ft 138kts
30-May-17 10:02 40.509582 -123.670596 256 5963ft 135kts
30-May-17 10:03 40.498258 -123.718099 252 5489ft 137kts
30-May-17 10:04 40.486015 -123.765222 252 5021ft 137kts
30-May-17 10:05 40.475751 -123.804479 252 4703ft 133kts
30-May-17 10:06 40.464168 -123.848679 252 4699ft 126kts
30-May-17 10:07 40.454848 -123.898976 299 4605ft 125kts
30-May-17 10:08 40.470492 -123.932318 311 3889ft 131kts
30-May-17 10:09 40.492415 -123.966904 282 3524ft 120kts
30-May-17 10:10 40.511711 -124.010422 292 3209ft 122kts
30-May-17 10:11 40.517418 -124.042665 288 2642ft 111kts
30-May-17 10:12 40.529882 -124.079417 308 1525ft 117kts
30-May-17 10:13 40.541334 -124.111593 310 731ft 87kts
30-May-17 10:14 40.553834 -124.132412 312 358ft 44kts
30-May-17 10:15 40.557546 -124.138006 34 328ft 0kts
30-May-17 10:16 40.557546 -124.138006 34 328ft 0kts
30-May-17 10:17 40.557546 -124.138006 34 328ft 0kts
30-May-17 10:18 40.557546 -124.138006 34 328ft 0kts

Navigation Log

Ident Type
Flight plan parsing failed, navigation log unavailable